Create Custom Reports and Graphics: Custom Report

Latest Observation

39 Stations

Daily Data | America/Los_Angeles
as of 1/17/22 10:34 PM PST
Station Date Daily Max Temp (°F) Time of Max Temp Daily Min Temp (°F) Time of Min Temp Daily Rain (In) Monthly Rain (In) Seasonal Rainfall (In) Daily ETo (in) 7 Day ETo (in) Daily Solar Rad (Cal/cm2) Wind Spd (mph) Daily Max Wind (mph) Time of Max Wind Max Wind Dir (°) Dew Pt (°F) Max RH (%) Min RH (%) Hrs 70-85F (hrs) Hrs > 95F (hrs) Powdery Mildew Stress (pts) Hrs <= 32F (hrs) Hrs <= 28F (hrs) GDDs (DL) Chilling <=45F (hrs) Chilling <=45F Seas (hrs) Daily Leaf Wet Hrs (hrs) Daily Max CanT (°F) Daily Min CanT (°F) Bat Volt Min Day (V) Max 1 Min Rain (In) Max 1 Min Rain Time Max 15 Min Rain (In) Max 15 Min Precip Time Max 60 Min Rain (In) Max 60 Min Rain Time
Colony 1 1/16/22 59.7 1621 39.5 2344 0.00 0.04 16.21 0.040 0.32 178 1.2 6.9 1307 WSW | 258 43.6 100 55 0.00 0.00 - 0.0 0.0 2.1 12.6 611 - - - 12.6 - - - - - -
Colony 2 1/16/22 61.9 1639 39.9 0001 0.00 0.02 15.12 0.040 0.31 176 1.6 7.3 0236 SE | 130 43.0 99 52 0.00 0.00 - 0.0 0.0 2.3 12.8 662 - - - 12.6 - - - - - -
5 Wells 1/16/22 58.2 1311 39.4 2358 0.00 0.02 13.25 0.038 0.32 184 1.5 7.9 0218 SE | 128 44.4 100 62 0.00 0.00 - 0.0 0.0 1.8 12.3 648 - - - 12.1 - - - - - -
Simmerhorn 1/16/22 57.6 1554 39.8 2359 - - - - - - - - - - 45.6 100 71 0.00 0.00 - 0.0 0.0 1.7 12.3 626 - - - 12.2 - - - - - -
Galt-East 1/16/22 57.6 1550 39.0 2359 0.00 0.04 10.17 0.032 0.27 159 1.4 7.8 1325 NW | 324 46.0 100 75 0.00 0.00 - 0.0 0.0 1.7 11.2 684 - - - 12.4 - - - - - -
Borden Hills 1/16/22 60.2 1604 41.3 2347 0.00 0.03 16.93 0.040 0.33 183 2.2 7.1 1200 WNW | 299 44.8 96 68 0.00 0.00 - 0.0 0.0 2.1 10.4 549 - - - 12.4 - - - - - -
Sierra Loma-L27 1/16/22 58.4 1601 41.7 0047 0.00 0.02 13.19 - - - 1.8 7.5 1149 W | 261 45.1 97 70 0.00 0.00 - 0.0 0.0 2.0 9.5 539 - - - 12.4 - - - - - -
Lockeford 1/16/22 57.2 1530 39.4 0042 0.00 0.02 13.61 0.039 0.29 191 1.0 8.4 1248 N | 354 43.8 99 68 0.00 0.00 - 0.0 0.0 1.6 10.8 667 13.5 - - 12.0 - - - - - -
Lone Oak-L28 1/16/22 58.6 1529 36.4 2358 0.00 0.03 11.54 - - - 1.8 7.9 1449 NE | 36 44.0 98 65 0.00 0.00 - 0.0 0.0 1.9 12.6 802 - - - 12.4 - - - - - -
Kost Rd 1/16/22 60.1 1330 38.8 2358 0.00 0.02 13.68 0.043 0.28 201 1.3 8.9 1244 N | 4 45.6 100 69 0.00 0.00 - 0.0 0.0 2.3 12.0 626 - - - 12.1 - - - - - -
Thornton 1/16/22 59.5 1209 37.9 2355 0.00 0.04 14.16 0.045 0.29 197 0.9 8.4 1340 NW | 317 44.0 100 63 0.00 0.00 - 0.0 0.0 2.0 13.1 680 23.2 - - 12.5 - - - - - -
Lodi (LangeTwins) 1/16/22 60.2 1308 38.8 2359 0.01 0.04 14.57 0.042 0.28 198 0.7 7.4 1311 NNW | 344 45.3 100 71 0.00 0.00 - 0.0 0.0 2.1 12.3 659 11.2 - - 11.0 0.01 0225 0.01 0239 0.01 0324
Gilbeau Ranch 1/16/22 58.5 1306 40.5 0017 0.00 0.02 13.25 0.035 0.28 158 0.8 6.7 1206 W | 259 44.3 100 63 0.00 0.00 - 0.0 0.0 1.9 11.9 642 - - - 12.2 - - - - - -
Galt West 1/16/22 59.2 1442 37.8 2359 0.00 0.05 16.85 0.044 0.30 202 1.7 9.0 0244 ESE | 114 43.9 98 66 0.00 0.00 - 0.0 0.0 2.0 13.8 640 - - - 12.4 - - - - - -
Valley Oak 1/16/22 60.3 1331 38.3 2353 0.00 0.04 15.50 0.050 0.32 212 1.3 9.1 0236 SE | 131 17.6 100 - 0.00 0.00 - 0.0 0.0 2.3 12.9 696 - - - 11.9 - - - - - -
Guard Rd (Lodi WSW) 1/16/22 62.7 1359 39.2 2359 0.00 0.05 13.35 0.048 0.30 219 1.6 8.1 1335 NNW | 332 44.4 99 58 0.00 0.00 - 0.0 0.0 2.3 12.1 665 8.9 64.1 38.6 12.2 - - - - - -
Linden 1/16/22 61.3 1304 40.0 0001 0.00 0.02 12.62 - - - 1.5 8.0 1432 N | 354 45.0 100 55 0.00 0.00 - 0.0 0.0 2.4 10.8 705 15.4 - - 12.6 - - - - - -
DeVries Road-North 1/16/22 60.1 1239 39.9 2327 0.00 0.03 14.11 0.043 0.29 204 1.3 7.5 1149 NW | 319 45.0 100 67 0.00 0.00 - 0.0 0.0 2.0 12.2 687 - - - 12.4 - - - - - -
Acampo 1/16/22 60.1 1329 39.2 2359 0.00 0.01 13.34 0.045 0.30 205 0.5 8.1 0213 E | 101 43.3 100 58 0.00 0.00 - 0.0 0.0 2.2 11.5 671 23.9 - - 13.6 - - - - - -
Acampo (Woodbridge) 1/16/22 60.2 1319 41.3 2355 0.00 0.03 12.25 0.045 0.30 201 1.5 8.4 0207 ESE | 115 45.2 100 61 0.00 0.00 - 0.0 0.0 2.3 10.2 592 - - - 12.2 - - - - - -
Lodi West 1/16/22 61.2 1346 41.8 2359 0.00 0.02 12.62 0.042 0.29 197 0.9 9.6 1352 NW | 315 44.8 100 61 0.00 0.00 - 0.0 0.0 2.1 9.7 606 0.0 - - 12.1 - - - - - -
Teresi-Alpine Rd (East Lodi) 1/16/22 61.9 1314 41.7 0002 0.00 0.02 12.38 0.047 0.31 212 1.4 9.5 0159 SE | 126 45.0 99 57 0.00 0.00 - 0.0 0.0 2.5 10.0 676 - - - 12.5 - - - - - -
Victor - N (Katusha) 1/16/22 59.9 1300 40.6 2358 0.00 - 10.35 - - - 0.7 11.1 0205 SSE | 152 43.7 97 56 0.00 0.00 0 0.0 0.0 2.0 10.7 - - - - 12.5 - - - - - -
Live Oak 1/16/22 60.4 1359 39.8 2359 0.00 0.04 12.52 0.044 0.29 198 1.4 8.5 1500 N | 11 44.8 100 59 0.00 0.00 - 0.0 0.0 2.2 10.8 692 - - - 12.5 - - - - - -
Sheldon 1/16/22 59.2 1431 36.6 0001 0.00 0.07 13.80 0.038 0.31 167 0.9 7.8 0716 ENE | 63 41.8 98 54 0.00 0.00 - 0.0 0.0 1.7 14.3 702 11.8 - - 12.7 - - - - - -
Sloughhouse 1/16/22 62.3 1433 35.6 0051 0.00 0.05 13.94 0.042 0.33 185 1.2 7.8 1229 W | 276 41.2 100 48 0.00 0.00 - 0.0 0.0 2.1 14.9 723 - - - 12.4 - - - - - -
Utter - Wilson 1/16/22 59.4 1408 36.4 2344 0.00 0.07 15.08 0.041 0.32 198 2.4 11.5 1300 NNW | 328 44.0 100 66 0.00 0.00 - 0.0 0.0 1.6 14.9 680 - - - 12.4 - - - - - -
Clarksburg 1/16/22 59.2 1359 37.6 2340 0.01 0.16 9.67 0.043 0.33 198 2.1 9.6 1415 N | 4 43.8 99 60 0.00 0.00 - 0.0 0.0 1.7 13.6 600 - - - 12.4 0.01 1329 0.01 1343 0.01 1428
Clarksburg-3A2 1/16/22 57.5 1347 36.6 2356 0.01 0.07 14.88 0.042 0.31 201 2.3 10.4 1340 WNW | 295 43.6 100 60 0.00 0.00 - 0.0 0.0 1.4 14.4 658 - - - 12.7 0.01 0855 0.01 0909 0.01 0954
Gorter - Wilson 1/16/22 61.1 1356 33.6 2359 0.00 0.05 15.50 0.038 0.29 175 1.7 10.0 1405 NW | 318 42.8 100 64 0.00 0.00 - 0.0 0.0 1.7 15.2 687 - - - 12.6 - - - - - -
Hood 1/16/22 59.4 1344 37.3 2352 0.00 0.08 15.18 0.041 0.31 195 1.5 8.2 1354 NNW | 333 43.7 100 61 0.00 0.00 - 0.0 0.0 1.7 14.2 662 - - - 12.4 - - - - - -
Courtland-C3 1/16/22 59.5 1416 38.8 2359 0.00 0.06 14.76 - - - 2.2 10.0 1512 N | 354 43.7 100 61 0.00 0.00 - 0.0 0.0 1.7 14.5 705 - - - 12.4 - - - - - -
Pacific Fruit 1/16/22 60.6 1426 38.7 2352 0.00 0.09 16.04 0.052 0.31 242 2.0 9.8 1504 N | 11 44.9 100 63 0.00 0.00 - 0.0 0.0 2.1 11.9 640 - - - 12.2 - - - - - -
Ryer Island South 1/16/22 61.1 1447 38.0 2359 0.00 0.03 14.67 0.049 0.31 226 2.1 9.2 1500 NE | 44 44.9 99 57 0.00 0.00 - 0.0 0.0 2.1 14.0 630 17.1 - - 12.1 - - - - - -
Farmington (Mobley100) 1/16/22 62.0 1448 40.4 2357 - - - - - - 0.8 6.0 0120 SE | 125 44.6 98 54 0.00 0.00 - 0.0 0.0 2.9 8.6 685 - - - 12.5 - - - - - -
Collegeville 1/16/22 62.8 1454 40.8 2355 0.00 0.04 10.32 0.054 0.32 234 1.4 7.3 1403 N | 5 45.5 100 53 0.00 0.00 - 0.0 0.0 3.3 7.9 651 - - - 12.4 - - - - - -
Oakdale North (28 Mile Rd) 1/16/22 60.6 1353 41.1 2312 - - - - - - 1.1 6.9 1130 W | 278 44.9 99 57 0.00 0.00 - 0.0 0.0 2.6 6.5 630 - - - 12.7 - - - - - -
Escalon 1/16/22 66.8 1423 42.3 2359 0.00 0.00 10.11 - - - 1.5 7.7 1349 N | 6 45.9 100 47 0.00 0.00 - 0.0 0.0 3.8 6.3 621 7.3 - - 12.1 - - - - - -
Claussen 1/16/22 60.9 1442 41.4 0721 0.00 0.03 8.00 0.042 0.32 198 1.9 7.8 0133 SE | 128 47.2 100 69 0.00 0.00 - 0.0 0.0 2.1 5.6 616 - - - 12.3 - - - - - -
Max   66.8 - 42.3 - 0.01 0.16 - 0.054 - 242 2.4 11.5 - - 47.2 100 75 0.00 0.00 - 0.0 0.0 3.8 15.2 - 23.9 - - 13.6 0.01 - 0.01 - 0.01 -
Avg   - - - - - 0.04 - - - - 1.5 - - - 43.7 - - 0.00 0.00 - 0.0 0.0 2.1 11.7 - - - - - - - - - - -
Min   57.2 - 33.6 - 0.00 0.00 - 0.032 - 158 0.5 6.0 - - 17.6 96 47 0.00 0.00 - 0.0 0.0 1.4 5.6 - 0.0 - - 11.0 0.01 - 0.01 - 0.01 -